createdAt,value
2023-03-02T00:00:05.456Z,26.50
2023-03-02T00:05:06.859Z,26.60
2023-03-02T00:10:08.268Z,26.60
2023-03-02T00:15:09.685Z,26.60
2023-03-02T00:20:11.116Z,26.50
2023-03-02T00:25:12.508Z,26.50
2023-03-02T00:30:13.940Z,26.50
2023-03-02T00:35:15.353Z,26.50
2023-03-02T00:40:16.766Z,26.60
2023-03-02T00:45:18.157Z,26.60
2023-03-02T00:50:19.562Z,26.60
2023-03-02T00:55:20.977Z,26.70
2023-03-02T01:00:22.406Z,26.70
2023-03-02T01:05:23.831Z,26.90
2023-03-02T01:10:25.390Z,26.90
2023-03-02T01:15:26.795Z,27.00
2023-03-02T01:20:28.221Z,27.20
2023-03-02T01:25:29.627Z,27.20
2023-03-02T01:30:31.028Z,27.30
2023-03-02T01:35:32.519Z,27.40
2023-03-02T01:46:24.934Z,27.60
2023-03-02T01:51:26.357Z,27.70
2023-03-02T01:56:27.862Z,27.70
2023-03-02T02:01:29.352Z,27.70
2023-03-02T02:06:31.205Z,27.50
2023-03-02T02:11:32.917Z,27.40
2023-03-02T02:16:34.838Z,27.30
2023-03-02T02:21:36.522Z,27.30
2023-03-02T02:26:38.012Z,27.20
2023-03-02T02:31:39.492Z,27.20
2023-03-02T02:36:41.276Z,27.30
2023-03-02T02:41:42.704Z,27.30
2023-03-02T02:46:44.123Z,27.30
2023-03-02T02:51:45.526Z,27.40
2023-03-02T02:56:46.939Z,27.50
2023-03-02T03:01:48.351Z,27.50
2023-03-02T03:06:49.804Z,27.60
2023-03-02T03:11:51.218Z,27.70
2023-03-02T03:16:52.701Z,27.80
2023-03-02T03:21:54.140Z,27.80
2023-03-02T03:26:55.550Z,27.90
2023-03-02T03:31:56.997Z,28.00
2023-03-02T03:36:58.414Z,28.00
2023-03-02T03:41:59.819Z,28.10
2023-03-02T03:47:01.251Z,28.70
2023-03-02T03:52:02.679Z,28.20
2023-03-02T03:57:04.089Z,28.10
2023-03-02T04:02:05.492Z,27.90
2023-03-02T04:07:06.897Z,27.80
2023-03-02T04:12:08.337Z,27.70
2023-03-02T04:17:09.742Z,27.70
2023-03-02T04:22:11.144Z,27.60
2023-03-02T04:27:12.554Z,27.60
2023-03-02T04:32:14.036Z,27.60
2023-03-02T04:37:15.499Z,27.70
2023-03-02T04:42:16.909Z,27.70
2023-03-02T04:47:18.334Z,27.70
2023-03-02T04:52:19.738Z,27.80
2023-03-02T04:57:21.153Z,27.80
2023-03-02T05:02:22.669Z,28.00
2023-03-02T05:07:24.129Z,28.00
2023-03-02T05:12:25.558Z,28.10
2023-03-02T05:17:26.987Z,28.20
2023-03-02T05:22:28.433Z,28.20
2023-03-02T05:27:29.856Z,28.30
2023-03-02T05:32:31.328Z,28.30
2023-03-02T05:37:32.784Z,28.40
2023-03-02T05:42:35.126Z,28.50
2023-03-02T05:47:36.532Z,28.40
2023-03-02T05:52:37.932Z,28.30
2023-03-02T05:57:39.347Z,28.10
2023-03-02T06:02:40.880Z,27.90
2023-03-02T06:07:42.318Z,27.70
2023-03-02T06:12:44.016Z,27.60
2023-03-02T06:17:46.006Z,27.60
2023-03-02T06:22:47.425Z,27.60
2023-03-02T06:27:49.454Z,27.60
2023-03-02T06:32:50.980Z,27.60
2023-03-02T06:37:52.501Z,27.70
2023-03-02T06:42:53.901Z,27.70
2023-03-02T06:47:55.318Z,27.80
2023-03-02T06:52:56.720Z,27.90
2023-03-02T06:57:58.148Z,28.40
2023-03-02T07:02:59.567Z,28.00
2023-03-02T07:08:01.007Z,28.10
2023-03-02T07:13:02.561Z,28.20
2023-03-02T07:18:04.025Z,28.30
2023-03-02T07:23:05.435Z,28.30
2023-03-02T07:28:06.893Z,28.40
2023-03-02T07:33:08.301Z,28.40
2023-03-02T07:38:09.719Z,28.40
2023-03-02T07:43:11.175Z,28.40
2023-03-02T07:48:12.592Z,28.40
2023-03-02T07:53:14.002Z,28.20
2023-03-02T07:58:15.408Z,28.10
2023-03-02T08:03:16.804Z,28.00
2023-03-02T08:08:18.244Z,28.00
2023-03-02T08:13:19.656Z,27.80
2023-03-02T08:18:21.100Z,27.80
2023-03-02T08:23:22.560Z,27.80
2023-03-02T08:28:23.982Z,27.80
2023-03-02T08:33:25.401Z,27.80
2023-03-02T08:38:26.873Z,27.90
2023-03-02T08:43:28.285Z,28.00
2023-03-02T08:48:29.680Z,28.00
2023-03-02T08:53:31.099Z,28.00
2023-03-02T08:58:32.528Z,28.20
2023-03-02T09:03:33.966Z,28.20
2023-03-02T09:08:35.409Z,28.30
2023-03-02T09:13:37.032Z,28.40
2023-03-02T09:18:38.435Z,28.40
2023-03-02T09:23:39.838Z,28.40
2023-03-02T09:28:41.289Z,28.40
2023-03-02T09:33:42.718Z,28.50
2023-03-02T09:38:44.152Z,28.40
2023-03-02T09:43:45.565Z,28.30
2023-03-02T09:48:46.983Z,28.20
2023-03-02T09:53:48.472Z,28.10
2023-03-02T09:58:49.980Z,28.00
2023-03-02T10:03:51.549Z,27.90
2023-03-02T10:08:53.064Z,27.90
2023-03-02T10:13:54.491Z,27.90
2023-03-02T10:18:55.933Z,27.90
2023-03-02T10:23:58.148Z,28.00
2023-03-02T10:28:59.573Z,28.00
2023-03-02T10:34:01.005Z,28.00
2023-03-02T10:39:02.469Z,28.10
2023-03-02T10:44:03.885Z,28.20
2023-03-02T10:49:05.353Z,28.30
2023-03-02T10:54:06.792Z,28.30
2023-03-02T10:59:08.203Z,28.40
2023-03-02T11:04:09.650Z,28.40
2023-03-02T11:09:11.108Z,28.50
2023-03-02T11:14:12.532Z,28.50
2023-03-02T11:19:14.047Z,28.60
2023-03-02T11:24:15.498Z,28.70
2023-03-02T11:29:16.916Z,28.60
2023-03-02T11:34:18.742Z,28.60
2023-03-02T11:39:20.244Z,28.50
2023-03-02T11:44:21.658Z,28.40
2023-03-02T11:49:23.086Z,28.30
2023-03-02T11:54:24.510Z,28.30
2023-03-02T11:59:27.639Z,28.30
2023-03-02T12:04:30.277Z,28.30
2023-03-02T12:09:31.701Z,28.30
2023-03-02T12:14:33.124Z,28.40
2023-03-02T12:19:34.550Z,28.50
2023-03-02T12:24:35.974Z,28.50
2023-03-02T12:29:37.385Z,28.50
2023-03-02T12:34:38.788Z,28.60
2023-03-02T12:39:40.193Z,28.60
2023-03-02T12:44:41.621Z,28.70
2023-03-02T12:49:43.043Z,28.70
2023-03-02T12:54:44.573Z,28.80
2023-03-02T12:59:46.008Z,28.80
2023-03-02T13:04:47.467Z,28.90
2023-03-02T13:09:56.308Z,28.90
2023-03-02T13:14:58.266Z,29.00
2023-03-02T13:19:59.695Z,29.10
2023-03-02T13:25:01.106Z,29.10
2023-03-02T13:30:02.563Z,29.50
2023-03-02T13:35:03.986Z,28.80
2023-03-02T13:40:05.391Z,28.70
2023-03-02T13:45:06.821Z,28.60
2023-03-02T13:50:08.317Z,28.60
2023-03-02T13:55:09.771Z,28.50
2023-03-02T14:00:11.215Z,28.50
2023-03-02T14:05:12.790Z,28.50
2023-03-02T14:10:14.275Z,28.40
2023-03-02T14:15:15.734Z,28.60
2023-03-02T14:20:23.668Z,28.50
2023-03-02T14:25:25.088Z,28.60
2023-03-02T14:30:26.554Z,28.60
2023-03-02T14:35:28.023Z,28.70
2023-03-02T14:40:29.442Z,28.70
2023-03-02T14:45:31.065Z,28.80
2023-03-02T14:50:32.549Z,28.90
2023-03-02T14:55:33.987Z,29.00
2023-03-02T15:00:35.552Z,29.00
2023-03-02T15:05:37.046Z,29.10
2023-03-02T15:10:38.505Z,29.10
2023-03-02T15:15:39.917Z,29.10
2023-03-02T15:20:41.312Z,29.20
2023-03-02T15:25:42.746Z,29.40
2023-03-02T15:30:45.722Z,29.40
2023-03-02T15:35:47.147Z,29.30
2023-03-02T15:40:48.577Z,29.20
2023-03-02T15:45:49.986Z,29.00
2023-03-02T15:50:51.377Z,28.90
2023-03-02T15:55:52.787Z,28.80
2023-03-02T16:00:54.240Z,28.80
2023-03-02T16:05:55.725Z,28.80
2023-03-02T16:10:57.195Z,28.80
2023-03-02T16:15:58.721Z,28.90
2023-03-02T16:21:00.150Z,28.90
2023-03-02T16:26:01.555Z,28.90
2023-03-02T16:31:02.955Z,29.00
2023-03-02T16:36:04.362Z,29.00
2023-03-02T16:41:05.774Z,29.10
2023-03-02T16:46:07.220Z,29.10
2023-03-02T16:51:08.665Z,29.20
2023-03-02T16:56:10.150Z,29.30
2023-03-02T17:01:11.646Z,29.30
2023-03-02T17:06:13.079Z,29.40
2023-03-02T17:11:14.536Z,29.40
2023-03-02T17:16:16.011Z,29.40
2023-03-02T17:21:17.493Z,29.50
2023-03-02T17:26:18.893Z,29.60
2023-03-02T17:31:20.315Z,29.60
2023-03-02T17:36:21.716Z,29.60
2023-03-02T17:41:23.136Z,29.50
2023-03-02T17:46:24.605Z,29.50
2023-03-02T17:51:26.076Z,29.70
2023-03-02T17:56:27.523Z,30.00
2023-03-02T18:01:28.929Z,30.00
2023-03-02T18:06:30.361Z,30.10
2023-03-02T18:11:31.800Z,30.60
2023-03-02T18:16:33.339Z,30.70
2023-03-02T18:21:34.765Z,30.80
2023-03-02T18:26:36.159Z,30.90
2023-03-02T18:31:37.593Z,31.00
2023-03-02T18:36:39.069Z,31.10
2023-03-02T18:41:40.506Z,31.10
2023-03-02T18:46:42.036Z,31.20
2023-03-02T18:51:43.516Z,31.30
2023-03-02T18:56:44.948Z,31.40
2023-03-02T19:01:46.492Z,31.40
2023-03-02T19:06:47.968Z,31.60
2023-03-02T19:11:49.434Z,31.60
2023-03-02T19:16:50.879Z,31.60
2023-03-02T19:21:52.347Z,31.70
2023-03-02T19:26:53.750Z,31.80
2023-03-02T19:31:55.233Z,31.80
2023-03-02T19:36:56.688Z,31.80
2023-03-02T19:41:58.082Z,32.00
2023-03-02T19:46:59.501Z,32.00
2023-03-02T19:52:00.945Z,32.00
2023-03-02T19:57:02.370Z,32.00
2023-03-02T20:02:03.802Z,32.10
2023-03-02T20:07:05.219Z,32.10
2023-03-02T20:12:06.635Z,32.20
2023-03-02T20:17:08.042Z,32.20
2023-03-02T20:22:09.445Z,32.20
2023-03-02T20:27:10.861Z,32.20
2023-03-02T20:32:12.340Z,32.20
2023-03-02T20:37:13.762Z,32.10
2023-03-02T20:42:15.177Z,32.20
2023-03-02T20:47:16.861Z,32.00
2023-03-02T20:52:18.286Z,32.00
2023-03-02T20:57:19.704Z,31.80
2023-03-02T21:02:21.131Z,31.60
2023-03-02T21:07:22.557Z,31.40
2023-03-02T21:12:23.957Z,31.20
2023-03-02T21:17:25.456Z,31.30
2023-03-02T21:22:26.868Z,31.40
2023-03-02T21:27:28.274Z,31.60
2023-03-02T21:32:29.722Z,31.50
2023-03-02T21:37:31.193Z,31.60
2023-03-02T21:42:32.633Z,31.70
2023-03-02T21:47:34.038Z,31.80
2023-03-02T21:52:35.440Z,31.80
2023-03-02T21:57:36.862Z,32.40
2023-03-02T22:02:38.282Z,31.50
2023-03-02T22:07:39.697Z,31.40
2023-03-02T22:12:41.112Z,31.90
2023-03-02T22:17:42.516Z,32.10
2023-03-02T22:22:43.917Z,32.20
2023-03-02T22:27:45.311Z,32.40
2023-03-02T22:32:46.738Z,32.70
2023-03-02T22:37:48.157Z,32.80
2023-03-02T22:42:49.556Z,32.90
2023-03-02T22:47:51.004Z,33.00
2023-03-02T22:52:52.419Z,33.00
2023-03-02T22:57:53.922Z,33.10
2023-03-02T23:02:55.361Z,33.20
2023-03-02T23:07:56.764Z,33.30
2023-03-02T23:12:58.165Z,33.20
2023-03-02T23:17:59.582Z,33.30
2023-03-02T23:23:01.009Z,33.30
2023-03-02T23:28:02.426Z,33.40
2023-03-02T23:33:03.851Z,33.50
2023-03-02T23:38:05.441Z,33.40
2023-03-02T23:43:06.853Z,33.50
2023-03-02T23:48:08.270Z,33.60
2023-03-02T23:53:09.682Z,33.60
2023-03-02T23:58:11.084Z,33.70
